Admiralengracht — PCDE — position and weather

sailwx.info

Track history (hours):
 
Tides and Currents Weather Stations Pressure Air Temp Water Temp Dewpoint Dewpoint Depression Visibility Wind Speed Wind Dir Waves Ship Positions

Admiralengracht

Last reported at 2018-Nov-11 02:32 UTC. Time now 2018-Nov-15 08:02 UTC.
Position N 51°26' E 003°35'.

Length 130 m; beam 19 m; draft 9 m.

Type: Ship. MMSI: 244170283.

Date/timePositionNaut miles runAvg speedWind from/ knotsBaromVisibWave heightAir tempDewpointWater temp
2018-Nov-11 02:32N 51°26' E 003°35'510.0
2018-Nov-11 02:02N 51°30' E 003°29'4 8.1
2018-Nov-11 01:32N 51°33' E 003°25'4 8.1
2018-Nov-11 01:02N 51°36' E 003°21'4 8.4
2018-Nov-11 00:32N 51°38' E 003°15'4 7.8
2018-Nov-11 00:02N 51°40' E 003°10'1 2.8
2018-Nov-10 23:32N 51°39' E 003°10'1 1.1
2018-Nov-10 23:00N 51°39' E 003°09'2 4.4
2018-Nov-10 22:31N 51°41' E 003°07'1 1.5
2018-Nov-10 22:01N 51°41' E 003°06'0 0.9
2018-Nov-10 21:32N 51°41' E 003°07'1 2.0
2018-Nov-10 21:01N 51°41' E 003°05'1 2.6
2018-Nov-10 20:32N 51°41' E 003°07'1 1.2
2018-Nov-10 20:02N 51°41' E 003°06'1 1.8
2018-Nov-10 19:32N 51°41' E 003°08'0 0.8
2018-Nov-10 19:02N 51°41' E 003°08'1 1.3
2018-Nov-10 18:32N 51°41' E 003°07'1 1.2
2018-Nov-10 18:02N 51°41' E 003°08'0 0.5
2018-Nov-10 17:32N 51°40' E 003°08'1 2.0
2018-Nov-10 17:00N 51°41' E 003°07'1 2.8
2018-Nov-10 16:32N 51°40' E 003°09'1 1.2
2018-Nov-10 16:01N 51°41' E 003°08'2 3.9
2018-Nov-10 15:32N 51°39' E 003°10'0 0.7
2018-Nov-10 15:00N 51°39' E 003°09'1 1.7
2018-Nov-10 14:32N 51°39' E 003°10'1 2.3
2018-Nov-10 14:01N 51°40' E 003°09'1 1.5
2018-Nov-10 13:31N 51°41' E 003°09'1 1.9
2018-Nov-10 12:59N 51°40' E 003°09'0 0.4
2018-Nov-10 12:32N 51°40' E 003°09'1 1.6
2018-Nov-10 12:02N 51°40' E 003°08'0 0.6
2018-Nov-10 11:31N 51°40' E 003°08'0 0.7
2018-Nov-10 11:01N 51°40' E 003°08'3 5.3
2018-Nov-10 10:32N 51°38' E 003°11'4 7.1
2018-Nov-10 10:00N 51°35' E 003°16'3 6.9
2018-Nov-10 09:31N 51°33' E 003°20'1 3.0
2018-Nov-10 09:02N 51°34' E 003°18'1 1.9
2018-Nov-10 08:32N 51°35' E 003°17'2 3.2
2018-Nov-10 08:02N 51°33' E 003°19'1 1.6
2018-Nov-10 07:33N 51°33' E 003°20'1 1.9
2018-Nov-10 07:02N 51°32' E 003°19'1 1.4
2018-Nov-10 06:31N 51°33' E 003°20'1 1.2
2018-Nov-10 06:02N 51°33' E 003°20'0 0.6
2018-Nov-10 05:32N 51°33' E 003°20'0 0.9
2018-Nov-10 05:02N 51°33' E 003°20'0 0.4
2018-Nov-10 04:32N 51°32' E 003°20'0 0.6
2018-Nov-10 04:01N 51°33' E 003°20'0 0.8
2018-Nov-10 03:32N 51°33' E 003°20'0 0.2
2018-Nov-10 03:02N 51°33' E 003°20'0 0.6
2018-Nov-10 02:32N 51°33' E 003°20'0 0.6
2018-Nov-10 02:02N 51°34' E 003°20'0 0.6
2018-Nov-10 01:33N 51°34' E 003°20'1 1.1
2018-Nov-10 01:02N 51°33' E 003°20'0 0.9
2018-Nov-10 00:32N 51°33' E 003°20'1 1.6
2018-Nov-09 23:59N 51°34' E 003°19'1 2.8
2018-Nov-09 23:32N 51°34' E 003°17'2 3.6
2018-Nov-09 23:01N 51°35' E 003°15'1 2.7
2018-Nov-09 22:32N 51°36' E 003°13'1 1.5
2018-Nov-09 21:59N 51°36' E 003°14'1 1.7
2018-Nov-09 21:31N 51°36' E 003°13'0 0.6
2018-Nov-09 21:02N 51°36' E 003°13'1 1.8
2018-Nov-09 20:32N 51°36' E 003°14'1 2.7
2018-Nov-09 20:02N 51°37' E 003°12'2 4.4
2018-Nov-09 19:32N 51°38' E 003°10'0 0.8
2018-Nov-09 19:01N 51°39' E 003°10'1 2.7
2018-Nov-09 18:31N 51°38' E 003°11'2 4.0
2018-Nov-09 18:01N 51°36' E 003°13'0 0.3
2018-Nov-09 17:30N 51°36' E 003°13'0 1.0
2018-Nov-09 17:03N 51°36' E 003°13'0 0.8
2018-Nov-09 16:31N 51°36' E 003°13'0 0.3
2018-Nov-09 16:02N 51°36' E 003°13'1 1.9
2018-Nov-09 15:31N 51°37' E 003°12'0 0.2
2018-Nov-09 15:02N 51°37' E 003°12'0 0.6
2018-Nov-09 14:30N 51°37' E 003°13'1 1.8
2018-Nov-09 14:00N 51°38' E 003°12'2 3.5
2018-Nov-09 13:32N 51°36' E 003°13'2 3.6
2018-Nov-09 13:02N 51°38' E 003°12'2 3.6
2018-Nov-09 12:33N 51°36' E 003°13'1 2.9
2018-Nov-09 12:02N 51°38' E 003°12'0 0.6
2018-Nov-09 11:32N 51°37' E 003°12'0 0.2
2018-Nov-09 11:02N 51°38' E 003°11'1 1.0
2018-Nov-09 10:32N 51°37' E 003°12'0 0.8
2018-Nov-09 10:02N 51°37' E 003°12'0 0.5
2018-Nov-09 09:20N 51°37' E 003°12'1 1.9
2018-Nov-09 09:02N 51°38' E 003°12'1 1.6
2018-Nov-09 08:32N 51°39' E 003°11'0 0.8
2018-Nov-09 08:01N 51°38' E 003°11'0 0.6
2018-Nov-09 07:32N 51°38' E 003°11'0 0.5
2018-Nov-09 07:02N 51°38' E 003°11'0 0.2
2018-Nov-09 06:31N 51°38' E 003°11'1 1.2
2018-Nov-09 06:02N 51°38' E 003°12'2 4.0
2018-Nov-09 05:30N 51°39' E 003°09'0 0.7
2018-Nov-09 05:01N 51°39' E 003°10'1 1.9
2018-Nov-09 04:32N 51°40' E 003°09'1 1.3
2018-Nov-09 04:01N 51°39' E 003°10'0 0.9
2018-Nov-09 03:29N 51°40' E 003°09'1 1.7
2018-Nov-09 03:01N 51°40' E 003°08'2 4.1
2018-Nov-09 02:32N 51°39' E 003°10'2 3.7
2018-Nov-09 02:02N 51°40' E 003°09'1 1.5
2018-Nov-09 01:32N 51°40' E 003°09'1 2.3
2018-Nov-09 01:02N 51°39' E 003°10'0 0.2
2018-Nov-09 00:31N 51°39' E 003°10'0 0.3
2018-Nov-09 00:02N 51°39' E 003°10'2 4.1
2018-Nov-08 23:32N 51°40' E 003°08'1 2.3
2018-Nov-08 23:02N 51°39' E 003°09'1 2.8
2018-Nov-08 22:32N 51°38' E 003°08'0 0.7
2018-Nov-08 21:58N 51°38' E 003°09'0 0.8
2018-Nov-08 21:30N 51°38' E 003°09'0 0.3
2018-Nov-08 21:01N 51°38' E 003°09'0 0.5
2018-Nov-08 20:32N 51°38' E 003°09'2 3.2
2018-Nov-08 19:57N 51°37' E 003°12'2 4.1
2018-Nov-08 19:31N 51°36' E 003°13'0 0.4
2018-Nov-08 19:02N 51°36' E 003°13'1 1.3
2018-Nov-08 18:32N 51°36' E 003°14'1 1.5
2018-Nov-08 18:00N 51°36' E 003°13'1 1.1
2018-Nov-08 17:30N 51°37' E 003°12'2 3.4
2018-Nov-08 17:02N 51°35' E 003°14'2 3.8
2018-Nov-08 16:31N 51°37' E 003°12'1 2.1
2018-Nov-08 16:02N 51°36' E 003°13'1 2.3
2018-Nov-08 15:31N 51°37' E 003°12'2 3.2
2018-Nov-08 15:01N 51°38' E 003°10'1 1.5
2018-Nov-08 14:32N 51°38' E 003°11'1 1.6
2018-Nov-08 14:01N 51°38' E 003°10'0 0.3
2018-Nov-08 13:30N 51°38' E 003°10'2 4.6
2018-Nov-08 13:02N 51°37' E 003°12'1 1.4
2018-Nov-08 12:31N 51°37' E 003°12'2 3.5
2018-Nov-08 12:02N 51°36' E 003°13'0 0.6
2018-Nov-08 11:32N 51°36' E 003°13'1 1.6
2018-Nov-08 11:01N 51°37' E 003°12'2 3.0
2018-Nov-08 10:30N 51°38' E 003°11'3 5.5
2018-Nov-08 10:02N 51°40' E 003°08'0 0.1
2018-Nov-08 09:32N 51°40' E 003°08'1 1.9
2018-Nov-08 09:02N 51°39' E 003°09'2 5.1
2018-Nov-08 08:32N 51°37' E 003°11'3 5.0
2018-Nov-08 07:59N 51°35' E 003°15'2 4.7
2018-Nov-08 07:32N 51°34' E 003°18'2 3.9
2018-Nov-08 06:59N 51°33' E 003°20'1 2.4
2018-Nov-08 06:32N 51°32' E 003°20'0 0.3
2018-Nov-08 06:02N 51°32' E 003°20'1 2.1
2018-Nov-08 05:32N 51°33' E 003°20'1 2.5
2018-Nov-08 04:58N 51°35' E 003°19'2 5.1
2018-Nov-08 04:29N 51°37' E 003°18'0 1.0
2018-Nov-08 04:02N 51°37' E 003°18'1 2.1
2018-Nov-08 03:30N 51°36' E 003°17'2 3.6
2018-Nov-08 03:02N 51°35' E 003°16'2 3.3
2018-Nov-08 02:32N 51°36' E 003°13'1 1.0
2018-Nov-08 02:03N 51°36' E 003°14'1 1.3
2018-Nov-08 01:31N 51°35' E 003°15'1 2.8
2018-Nov-08 01:02N 51°35' E 003°17'1 2.8
2018-Nov-08 00:43N 51°35' E 003°16'1 4.6
2018-Nov-08 00:32N 51°35' E 003°14'0 4.4
2018-Nov-08 00:28N 51°36' E 003°14'0 0.1
2018-Nov-08 00:02N 51°35' E 003°14'2 3.2
2018-Nov-07 23:31N 51°35' E 003°16'1 1.2
2018-Nov-07 22:59N 51°35' E 003°16'1 1.8
2018-Nov-07 22:32N 51°35' E 003°14'2 3.5
2018-Nov-07 21:59N 51°35' E 003°17'2 4.3
2018-Nov-07 21:30N 51°36' E 003°14'1 2.6
2018-Nov-07 21:03N 51°35' E 003°16'0 0.7
2018-Nov-07 20:33N 51°35' E 003°16'1 1.9
2018-Nov-07 20:00N 51°34' E 003°18'1 1.4
2018-Nov-07 19:32N 51°34' E 003°18'0 0.7
2018-Nov-07 19:01N 51°34' E 003°19'1 1.6
2018-Nov-07 18:32N 51°34' E 003°18'0 0.0
2018-Nov-07 18:03N 51°34' E 003°18'0 0.3
2018-Nov-07 17:32N 51°34' E 003°18'1 2.3
2018-Nov-07 17:02N 51°34' E 003°19'2 3.6
2018-Nov-07 16:32N 51°35' E 003°17'0 0.3
2018-Nov-07 16:03N 51°35' E 003°17'1 2.3
2018-Nov-07 15:33N 51°34' E 003°19'1 1.1
2018-Nov-07 15:01N 51°34' E 003°18'2 4.5
2018-Nov-07 14:32N 51°33' E 003°20'1 2.2
2018-Nov-07 14:02N 51°34' E 003°19'1 2.0
2018-Nov-07 13:32N 51°33' E 003°20'0 1.0
2018-Nov-07 13:02N 51°33' E 003°20'0 0.8
2018-Nov-07 12:32N 51°34' E 003°19'0 0.9
2018-Nov-07 12:02N 51°33' E 003°20'2 3.8
2018-Nov-07 11:32N 51°34' E 003°17'0 0.9
2018-Nov-07 11:02N 51°34' E 003°18'1 2.6
2018-Nov-07 10:32N 51°35' E 003°16'1 3.0
2018-Nov-07 10:02N 51°34' E 003°18'0 0.9
2018-Nov-07 09:31N 51°34' E 003°19'2 3.7
2018-Nov-07 09:02N 51°34' E 003°16'2 4.4
2018-Nov-07 08:32N 51°32' E 003°13'1 2.7
2018-Nov-07 08:00N 51°34' E 003°13'1 3.0
2018-Nov-07 07:32N 51°35' E 003°12'2 3.9
2018-Nov-07 07:02N 51°37' E 003°11'2 4.2
2018-Nov-07 06:31N 51°39' E 003°09'2 3.1
2018-Nov-07 06:01N 51°40' E 003°08'2 3.9
2018-Nov-07 05:32N 51°42' E 003°07'0 0.8
2018-Nov-07 05:02N 51°41' E 003°07'2 3.3
2018-Nov-07 04:32N 51°40' E 003°09'1 0.2
2018-Nov-06 23:17N 51°41' E 003°08'1 2.5
2018-Nov-06 23:03N 51°40' E 003°08'0 4.0
2018-Nov-06 22:59N 51°40' E 003°09'3 2.9
2018-Nov-06 21:58N 51°42' E 003°05'2 4.5
2018-Nov-06 21:30N 51°41' E 003°08'1 3.1
2018-Nov-06 21:03N 51°40' E 003°09'0 4.5
2018-Nov-06 21:00N 51°39' E 003°10'2 3.8
2018-Nov-06 20:30N 51°38' E 003°11'2 3.7
2018-Nov-06 20:03N 51°36' E 003°13'0 4.0
2018-Nov-06 20:00N 51°36' E 003°13'2 3.7
2018-Nov-06 19:29N 51°35' E 003°15'1 3.0
2018-Nov-06 19:03N 51°36' E 003°13'0 2.9
2018-Nov-06 19:00N 51°36' E 003°13'0 0.3
2018-Nov-06 18:30N 51°36' E 003°13'1 2.6
2018-Nov-06 18:03N 51°36' E 003°11'0 4.8
2018-Nov-06 18:00N 51°36' E 003°11'2 4.5
2018-Nov-06 17:31N 51°38' E 003°09'2 4.3
2018-Nov-06 17:03N 51°40' E 003°08'0 1.0
2018-Nov-06 17:00N 51°40' E 003°08'0 1.0
2018-Nov-06 16:30N 51°40' E 003°08'2 4.8
2018-Nov-06 16:03N 51°42' E 003°05'0 5.1
2018-Nov-06 16:00N 51°42' E 003°04'1 1.2
2018-Nov-06 15:29N 51°42' E 003°04'0 0.7
2018-Nov-06 15:02N 51°42' E 003°03'0 3.8
2018-Nov-06 14:59N 51°42' E 003°03'0 0.3
2018-Nov-06 14:29N 51°42' E 003°03'0 0.4
2018-Nov-06 14:03N 51°42' E 003°03'0 4.0
2018-Nov-06 14:00N 51°42' E 003°03'0 0.3
2018-Nov-06 13:28N 51°42' E 003°03'0 1.0
2018-Nov-06 13:02N 51°42' E 003°03'0 3.9
2018-Nov-06 12:59N 51°42' E 003°03'1 1.2
2018-Nov-06 12:26N 51°42' E 003°04'1 1.0
2018-Nov-06 11:43N 51°42' E 003°05'1 0.7
2018-Nov-06 10:57N 51°42' E 003°05'2 4.3
2018-Nov-06 10:29N 51°41' E 003°07'1 2.4
2018-Nov-06 10:03N 51°40' E 003°09'0 0.4
2018-Nov-06 10:00N 51°40' E 003°09'0 0.0
2018-Nov-06 09:28N 51°40' E 003°09'1 2.5
2018-Nov-06 09:03N 51°39' E 003°09'0 5.5
2018-Nov-06 09:00N 51°39' E 003°09'3 5.2
2018-Nov-06 08:30N 51°36' E 003°11'1 2.3
2018-Nov-06 08:00N 51°36' E 003°13'0 0.5
2018-Nov-06 07:30N 51°36' E 003°13'0 0.4
2018-Nov-06 07:01N 51°35' E 003°13'0 0.4
2018-Nov-06 06:58N 51°35' E 003°13'0 0.7
2018-Nov-06 06:30N 51°35' E 003°13'0 0.8
2018-Nov-06 06:02N 51°35' E 003°13'0 1.0
2018-Nov-06 05:59N 51°35' E 003°13'1 2.3
2018-Nov-06 05:30N 51°36' E 003°12'1 1.9
2018-Nov-06 05:03N 51°36' E 003°13'0 4.4
2018-Nov-06 05:00N 51°36' E 003°14'0 0.8
2018-Nov-06 04:29N 51°36' E 003°13'0 1.0
2018-Nov-06 04:03N 51°36' E 003°14'0 1.4
2018-Nov-06 04:00N 51°36' E 003°14'1 2.1
2018-Nov-06 03:30N 51°35' E 003°15'1 2.7
2018-Nov-06 02:58N 51°36' E 003°14'1 2.5
2018-Nov-06 02:30N 51°37' E 003°13'1 1.3
2018-Nov-06 02:03N 51°38' E 003°13'0 0.1
2018-Nov-06 01:59N 51°38' E 003°13'1 1.4
2018-Nov-06 01:30N 51°37' E 003°13'0 1.0
2018-Nov-06 01:02N 51°37' E 003°12'1 0.8
2018-Nov-05 23:30N 51°38' E 003°11'0 0.8
2018-Nov-05 23:03N 51°38' E 003°11'0 3.6
2018-Nov-05 23:00N 51°38' E 003°11'2 3.9
2018-Nov-05 22:30N 51°39' E 003°09'1 1.7
2018-Nov-05 22:03N 51°39' E 003°10'0 3.9
2018-Nov-05 21:59N 51°38' E 003°10'1 2.0
2018-Nov-05 21:30N 51°38' E 003°11'0 0.7
2018-Nov-05 21:03N 51°37' E 003°12'0 4.5
2018-Nov-05 21:00N 51°38' E 003°11'2 4.2
2018-Nov-05 20:26N 51°40' E 003°09'1 3.4
2018-Nov-05 20:01N 51°38' E 003°10'0 2.0
2018-Nov-05 19:59N 51°38' E 003°10'1 2.0
2018-Nov-05 19:30N 51°38' E 003°11'2 3.3
2018-Nov-05 19:02N 51°36' E 003°12'0 4.3
2018-Nov-05 19:00N 51°36' E 003°12'1 1.3
2018-Nov-05 18:27N 51°35' E 003°13'0 1.1
2018-Nov-05 18:01N 51°36' E 003°13'0 4.2
2018-Nov-05 18:00N 51°36' E 003°14'0 0.1
2018-Nov-05 17:30N 51°36' E 003°14'1 1.2
2018-Nov-05 17:03N 51°36' E 003°13'0 1.6
2018-Nov-05 16:59N 51°36' E 003°13'0 0.6
2018-Nov-05 16:29N 51°36' E 003°13'1 3.3
2018-Nov-05 16:03N 51°37' E 003°13'0 0.9
2018-Nov-05 16:00N 51°37' E 003°13'1 1.5
2018-Nov-05 15:30N 51°36' E 003°13'0 0.5
2018-Nov-05 15:03N 51°36' E 003°13'0 0.9
2018-Nov-05 14:59N 51°36' E 003°13'1 1.4
2018-Nov-05 14:29N 51°37' E 003°13'1 1.7
2018-Nov-05 14:03N 51°37' E 003°12'1 2.2
2018-Nov-05 13:30N 51°36' E 003°14'2 3.2
2018-Nov-05 13:01N 51°35' E 003°16'0 2.7
2018-Nov-05 12:57N 51°35' E 003°16'1 1.3
2018-Nov-05 12:28N 51°35' E 003°15'1 2.8
2018-Nov-05 12:03N 51°36' E 003°14'0 3.8
2018-Nov-05 11:59N 51°37' E 003°14'0 0.4
2018-Nov-05 11:29N 51°37' E 003°13'1 1.7
2018-Nov-05 11:00N 51°36' E 003°14'0 0.2
2018-Nov-05 10:30N 51°36' E 003°14'1 1.4
2018-Nov-05 10:03N 51°37' E 003°14'0 1.6
2018-Nov-05 10:00N 51°37' E 003°14'1 1.4
2018-Nov-05 09:30N 51°37' E 003°13'1 1.4
2018-Nov-05 09:04N 51°37' E 003°13'0 1.1
2018-Nov-05 08:59N 51°37' E 003°13'0 0.9
2018-Nov-05 08:30N 51°36' E 003°13'0 1.1
2018-Nov-05 08:04N 51°36' E 003°13'0 3.7
2018-Nov-05 08:00N 51°36' E 003°13'0 0.7
2018-Nov-05 07:30N 51°36' E 003°13'0 0.9
2018-Nov-05 07:03N 51°36' E 003°13'0 0.2
2018-Nov-05 07:00N 51°36' E 003°13'0 0.3
2018-Nov-05 06:30N 51°36' E 003°13'0 0.3
2018-Nov-05 06:04N 51°36' E 003°14'0 0.2
2018-Nov-05 06:00N 51°36' E 003°14'0 0.4
2018-Nov-05 05:30N 51°36' E 003°13'0 0.3
2018-Nov-05 05:03N 51°36' E 003°13'0 0.5
2018-Nov-05 05:00N 51°36' E 003°13'1 2.7
2018-Nov-05 04:30N 51°35' E 003°15'1 3.1
2018-Nov-05 04:03N 51°36' E 003°13'0 4.0
2018-Nov-05 04:00N 51°36' E 003°13'1 1.7
2018-Nov-05 03:28N 51°37' E 003°12'0 1.0
2018-Nov-05 03:02N 51°37' E 003°13'0 1.0
2018-Nov-05 02:59N 51°37' E 003°13'0 0.7
2018-Nov-05 02:30N 51°36' E 003°12'0 0.5
2018-Nov-05 02:03N 51°36' E 003°13'0 3.9
2018-Nov-05 02:00N 51°36' E 003°13'1 2.3
2018-Nov-05 01:30N 51°37' E 003°13'1 1.9
2018-Nov-05 01:02N 51°36' E 003°12'0 4.5
2018-Nov-05 01:00N 51°36' E 003°12'0 0.5
2018-Nov-05 00:29N 51°36' E 003°12'0 0.7
2018-Nov-05 00:01N 51°36' E 003°13'0 0.7
2018-Nov-04 23:57N 51°36' E 003°13'0 0.6
2018-Nov-04 23:30N 51°36' E 003°13'0 0.6
2018-Nov-04 23:03N 51°37' E 003°13'0 0.7
2018-Nov-04 23:00N 51°37' E 003°13'0 0.5
2018-Nov-04 22:30N 51°37' E 003°14'0 0.2
2018-Nov-04 22:03N 51°37' E 003°14'0 0.3
2018-Nov-04 22:00N 51°37' E 003°14'0 0.5
2018-Nov-04 21:29N 51°37' E 003°13'0 0.6
2018-Nov-04 21:00N 51°36' E 003°13'0 0.1
2018-Nov-04 20:27N 51°36' E 003°13'0 0.7
2018-Nov-04 20:03N 51°36' E 003°13'0 0.1
2018-Nov-04 20:00N 51°36' E 003°13'0 0.3
2018-Nov-04 19:30N 51°36' E 003°13'0 0.2
2018-Nov-04 19:02N 51°36' E 003°13'0 0.0
2018-Nov-04 19:00N 51°36' E 003°13'0 0.1
2018-Nov-04 18:30N 51°36' E 003°13'1 1.6
2018-Nov-04 18:03N 51°37' E 003°12'0 4.0
2018-Nov-04 18:00N 51°36' E 003°12'0 0.6
2018-Nov-04 17:27N 51°36' E 003°13'0 0.9
2018-Nov-04 16:58N 51°37' E 003°12'0 0.8
2018-Nov-04 16:29N 51°37' E 003°12'0 0.6
2018-Nov-04 15:59N 51°37' E 003°13'0 0.3
2018-Nov-04 15:29N 51°37' E 003°13'0 0.9
2018-Nov-04 15:03N 51°37' E 003°12'0 2.5
2018-Nov-04 15:00N 51°37' E 003°12'2 4.0
2018-Nov-04 14:30N 51°35' E 003°14'0 0.7
2018-Nov-04 14:03N 51°36' E 003°14'0 1.7
2018-Nov-04 13:59N 51°36' E 003°13'0 0.1
2018-Nov-04 13:29N 51°36' E 003°13'1 2.6
2018-Nov-04 13:03N 51°35' E 003°15'0 4.3
2018-Nov-04 13:00N 51°35' E 003°16'1 2.0
2018-Nov-04 12:30N 51°35' E 003°15'1 1.2
2018-Nov-04 12:03N 51°35' E 003°16'0 1.2
2018-Nov-04 11:57N 51°35' E 003°16'1 1.1
2018-Nov-04 11:25N 51°35' E 003°16'0 0.8
2018-Nov-04 11:03N 51°36' E 003°17'0 0.7
2018-Nov-04 10:59N 51°36' E 003°17'0 0.4
2018-Nov-04 10:30N 51°36' E 003°17'0 0.2
2018-Nov-04 10:01N 51°36' E 003°17'0 0.1
2018-Nov-04 09:59N 51°36' E 003°17'0 0.2
2018-Nov-04 09:30N 51°36' E 003°17'1 1.2
2018-Nov-04 09:02N 51°35' E 003°16'0 1.8
2018-Nov-04 09:00N 51°35' E 003°16'1 1.3
2018-Nov-04 08:30N 51°35' E 003°16'1 2.3
2018-Nov-04 08:01N 51°35' E 003°15'0 3.6
2018-Nov-04 07:57N 51°35' E 003°15'0 0.9
2018-Nov-04 07:30N 51°36' E 003°14'2 4.1
2018-Nov-04 07:03N 51°35' E 003°17'0 0.4
2018-Nov-04 06:59N 51°35' E 003°17'2 3.3
2018-Nov-04 06:14N 51°36' E 003°13'0 1.2
2018-Nov-04 06:03N 51°36' E 003°13'0 0.8
2018-Nov-04 06:00N 51°36' E 003°13'1 2.0
2018-Nov-04 05:30N 51°37' E 003°12'0 0.3
2018-Nov-04 04:57N 51°37' E 003°12'2 4.0
2018-Nov-04 04:30N 51°38' E 003°10'2 3.8
2018-Nov-04 03:56N 51°40' E 003°09'0 0.3
2018-Nov-04 03:27N 51°40' E 003°10'0 0.4
2018-Nov-04 03:03N 51°40' E 003°10'0 0.6
2018-Nov-04 02:58N 51°40' E 003°10'0 0.8
2018-Nov-04 02:30N 51°40' E 003°10'0 1.0
2018-Nov-04 02:03N 51°39' E 003°09'0 2.6
2018-Nov-04 02:00N 51°39' E 003°09'1 0.9
2018-Nov-04 01:27N 51°39' E 003°10'1 1.4
2018-Nov-04 01:03N 51°38' E 003°11'0 4.6
2018-Nov-04 00:59N 51°38' E 003°11'1 2.4
2018-Nov-04 00:29N 51°37' E 003°12'0 1.0
2018-Nov-04 00:03N 51°38' E 003°12'0 3.5
2018-Nov-04 00:00N 51°38' E 003°12'1 1.5
2018-Nov-03 23:30N 51°38' E 003°11'2 3.9
2018-Nov-03 23:02N 51°40' E 003°12'0 4.7
2018-Nov-03 23:00N 51°40' E 003°12'2 2.9
2018-Nov-03 22:25N 51°42' E 003°12'2 1.2
2018-Nov-03 20:30N 51°40' E 003°10'1 1.9
2018-Nov-03 20:02N 51°39' E 003°09'0 1.1
2018-Nov-03 20:00N 51°39' E 003°09'0 0.9
2018-Nov-03 19:29N 51°39' E 003°08'0 0.4
2018-Nov-03 19:03N 51°39' E 003°08'0 0.3
2018-Nov-03 18:58N 51°39' E 003°08'0 0.1
2018-Nov-03 18:28N 51°39' E 003°08'0 0.4
2018-Nov-03 18:03N 51°39' E 003°08'0 0.9
2018-Nov-03 18:00N 51°39' E 003°09'0 0.6
2018-Nov-03 17:30N 51°39' E 003°09'0 1.0
2018-Nov-03 17:03N 51°39' E 003°10'0 2.8
2018-Nov-03 16:59N 51°39' E 003°10'0 0.4
2018-Nov-03 16:29N 51°39' E 003°10'0 0.2
2018-Nov-03 16:01N 51°39' E 003°10'0 3.9
2018-Nov-03 15:59N 51°39' E 003°10'1 2.1
2018-Nov-03 15:26N 51°40' E 003°09'1 2.0
2018-Nov-03 15:02N 51°40' E 003°08'0 0.5
2018-Nov-03 14:57N 51°40' E 003°08'0 0.6
2018-Nov-03 14:29N 51°40' E 003°08'0 0.2
2018-Nov-03 14:03N 51°40' E 003°08'0 2.2
2018-Nov-03 13:59N 51°40' E 003°08'1 1.3
2018-Nov-03 13:30N 51°41' E 003°09'1 1.3
2018-Nov-03 13:03N 51°40' E 003°09'0 1.5
2018-Nov-03 12:58N 51°40' E 003°09'1 1.7
2018-Nov-03 12:30N 51°40' E 003°10'1 1.2
2018-Nov-03 12:03N 51°40' E 003°10'0 1.5
2018-Nov-03 12:00N 51°39' E 003°10'1 1.9
2018-Nov-03 11:30N 51°40' E 003°09'1 1.7
2018-Nov-03 11:03N 51°39' E 003°09'0 4.4
2018-Nov-03 11:00N 51°39' E 003°09'1 1.3
2018-Nov-03 10:29N 51°40' E 003°09'0 0.7
2018-Nov-03 10:03N 51°40' E 003°09'0 2.1
2018-Nov-03 09:55N 51°40' E 003°08'0 0.3
2018-Nov-03 09:30N 51°40' E 003°08'1 1.2
2018-Nov-03 09:03N 51°40' E 003°09'0 1.3
2018-Nov-03 08:57N 51°40' E 003°09'1 1.7
2018-Nov-03 08:29N 51°40' E 003°10'1 1.2
2018-Nov-03 08:03N 51°40' E 003°10'0 1.5
2018-Nov-03 07:59N 51°40' E 003°09'1 1.0
2018-Nov-03 07:28N 51°39' E 003°09'1 2.0
2018-Nov-03 07:02N 51°39' E 003°10'0 3.2
2018-Nov-03 06:59N 51°38' E 003°10'2 3.4
2018-Nov-03 06:30N 51°37' E 003°12'0 0.9
2018-Nov-03 06:03N 51°38' E 003°12'0 4.0
2018-Nov-03 06:00N 51°38' E 003°11'1 1.4
2018-Nov-03 05:30N 51°38' E 003°10'1 2.7
2018-Nov-03 05:03N 51°38' E 003°08'0 0.4
2018-Nov-03 05:00N 51°38' E 003°08'0 0.5
2018-Nov-03 04:27N 51°38' E 003°08'0 0.6
2018-Nov-03 04:03N 51°38' E 003°09'0 0.6
2018-Nov-03 03:59N 51°38' E 003°09'0 0.6
2018-Nov-03 03:24N 51°38' E 003°09'0 0.5
2018-Nov-03 03:02N 51°39' E 003°09'0 0.4
2018-Nov-03 02:56N 51°39' E 003°09'0 0.5
2018-Nov-03 02:27N 51°39' E 003°09'0 0.4
2018-Nov-03 02:02N 51°39' E 003°10'0 0.2
2018-Nov-03 01:53N 51°39' E 003°10'0 0.2
2018-Nov-03 01:23N 51°39' E 003°10'0 0.4
2018-Nov-03 01:02N 51°39' E 003°10'0 1.2
2018-Nov-03 00:59N 51°39' E 003°10'1 1.1
2018-Nov-03 00:30N 51°38' E 003°10'1 1.5
2018-Nov-03 00:02N 51°38' E 003°09'0 0.5
2018-Nov-02 23:59N 51°38' E 003°09'1 1.8
2018-Nov-02 23:30N 51°38' E 003°11'1 1.8
2018-Nov-02 22:59N 51°39' E 003°10'1 1.8
2018-Nov-02 22:29N 51°39' E 003°11'1 1.4
2018-Nov-02 22:03N 51°40' E 003°12'0 1.6
2018-Nov-02 21:56N 51°40' E 003°12'1 1.4
2018-Nov-02 21:30N 51°40' E 003°13'1 1.4
2018-Nov-02 21:00N 51°39' E 003°12'1 1.4
2018-Nov-02 20:28N 51°39' E 003°11'1 1.2
2018-Nov-02 20:00N 51°39' E 003°11'1 1.2
2018-Nov-02 19:30N 51°39' E 003°10'1 0.8
2018-Nov-02 17:37N 51°37' E 003°09'0 1.4
2018-Nov-02 17:29N 51°37' E 003°09'0 0.6
2018-Nov-02 17:03N 51°37' E 003°09'0 1.8
2018-Nov-02 17:00N 51°38' E 003°09'2 1.4
2018-Nov-02 15:51N 51°39' E 003°09'0 1.3
2018-Nov-02 15:30N 51°40' E 003°09'0 0.3
2018-Nov-02 15:03N 51°40' E 003°09'0 4.0
2018-Nov-02 15:00N 51°40' E 003°09'0 0.8
2018-Nov-02 14:30N 51°40' E 003°09'1 1.4
2018-Nov-02 14:00N 51°40' E 003°08'1 1.5
2018-Nov-02 13:30N 51°40' E 003°09'2 3.5
2018-Nov-02 13:02N 51°38' E 003°11'0 2.5
2018-Nov-02 12:58N 51°38' E 003°11'1 2.7
2018-Nov-02 12:31N 51°37' E 003°12'0 0.2
2018-Nov-02 12:03N 51°37' E 003°12'0 4.1
2018-Nov-02 11:59N 51°37' E 003°12'0 0.8
2018-Nov-02 11:30N 51°38' E 003°12'1 2.0
2018-Nov-02 11:02N 51°37' E 003°13'0 1.9
2018-Nov-02 10:55N 51°37' E 003°12'0 0.6
2018-Nov-02 10:30N 51°37' E 003°12'0 0.1
2018-Nov-02 10:03N 51°37' E 003°12'0 1.9
2018-Nov-02 10:00N 51°37' E 003°12'2 3.8
2018-Nov-02 09:30N 51°38' E 003°10'1 2.3
2018-Nov-02 09:02N 51°39' E 003°09'0 0.9
2018-Nov-02 08:59N 51°39' E 003°09'1 1.1
2018-Nov-02 08:29N 51°39' E 003°10'0 1.1
2018-Nov-02 08:03N 51°39' E 003°11'0 1.0
2018-Nov-02 08:00N 51°39' E 003°11'1 1.1
2018-Nov-02 07:28N 51°39' E 003°12'1 1.4
2018-Nov-02 07:00N 51°38' E 003°11'1 1.6
2018-Nov-02 06:28N 51°38' E 003°10'1 2.3
2018-Nov-02 06:03N 51°38' E 003°11'0 2.7
2018-Nov-02 06:00N 51°38' E 003°11'2 3.0
2018-Nov-02 05:30N 51°39' E 003°10'1 2.8
2018-Nov-02 05:03N 51°40' E 003°08'0 0.4
2018-Nov-02 04:57N 51°40' E 003°08'0 0.4
2018-Nov-02 04:30N 51°40' E 003°08'0 0.4
2018-Nov-02 04:01N 51°40' E 003°08'0 0.2
2018-Nov-02 03:59N 51°40' E 003°08'0 0.4
2018-Nov-02 03:30N 51°40' E 003°08'0 0.8
2018-Nov-02 02:54N 51°40' E 003°08'0 0.5
2018-Nov-02 02:12N 51°40' E 003°08'0 0.7
2018-Nov-02 01:59N 51°40' E 003°08'0 0.8
2018-Nov-02 01:27N 51°39' E 003°09'0 0.8
2018-Nov-02 01:02N 51°39' E 003°09'0 1.1
2018-Nov-02 00:53N 51°39' E 003°09'2 2.4
2018-Nov-02 00:14N 51°40' E 003°08'0 1.7
2018-Nov-02 00:02N 51°40' E 003°09'0 1.8
2018-Nov-01 23:54N 51°40' E 003°09'1 1.6
2018-Nov-01 23:29N 51°40' E 003°09'0 1.0
2018-Nov-01 23:02N 51°40' E 003°09'0 1.0
2018-Nov-01 22:59N 51°40' E 003°09'1 1.1
2018-Nov-01 22:28N 51°40' E 003°09'0 0.8
2018-Nov-01 22:02N 51°39' E 003°09'0 0.1
2018-Nov-01 21:59N 51°39' E 003°09'0 0.5
2018-Nov-01 21:25N 51°39' E 003°09'1 2.1
2018-Nov-01 21:03N 51°39' E 003°10'0 3.6
2018-Nov-01 21:00N 51°38' E 003°10'1 2.8
2018-Nov-01 20:30N 51°40' E 003°09'1 1.2
2018-Nov-01 20:02N 51°40' E 003°09'0 0.3
2018-Nov-01 19:58N 51°40' E 003°09'0 0.1
2018-Nov-01 19:30N 51°40' E 003°09'1 1.2
2018-Nov-01 19:01N 51°40' E 003°09'0 1.4
2018-Nov-01 18:58N 51°40' E 003°09'0 1.1
2018-Nov-01 18:30N 51°40' E 003°09'1 2.2
2018-Nov-01 18:02N 51°39' E 003°10'0 3.4
2018-Nov-01 17:56N 51°39' E 003°09'1 2.0
2018-Nov-01 17:29N 51°40' E 003°09'1 1.7
2018-Nov-01 17:02N 51°40' E 003°08'0 4.4
2018-Nov-01 16:57N 51°41' E 003°07'2 4.3
2018-Nov-01 16:29N 51°42' E 003°05'0 0.0
2018-Nov-01 16:03N 51°42' E 003°05'0 4.4
2018-Nov-01 16:00N 51°42' E 003°05'2 4.2
2018-Nov-01 15:30N 51°40' E 003°08'2 3.4
2018-Nov-01 15:03N 51°41' E 003°06'0 4.4
2018-Nov-01 15:00N 51°41' E 003°05'0 0.4
2018-Nov-01 14:03N 51°41' E 003°06'0 3.9
2018-Nov-01 14:00N 51°41' E 003°06'1 2.5
2018-Nov-01 13:29N 51°40' E 003°08'1 1.8
2018-Nov-01 13:03N 51°40' E 003°09'0 1.1
2018-Nov-01 13:00N 51°40' E 003°09'1 2.2
2018-Nov-01 12:30N 51°41' E 003°08'2 3.6
2018-Nov-01 12:03N 51°41' E 003°05'0 2.3
2018-Nov-01 12:00N 51°41' E 003°05'0 0.6
2018-Nov-01 11:30N 51°41' E 003°05'0 1.0
2018-Nov-01 11:02N 51°42' E 003°05'0 0.3
2018-Nov-01 10:58N 51°42' E 003°05'0 0.7
2018-Nov-01 10:30N 51°42' E 003°06'0 0.4
2018-Nov-01 10:03N 51°42' E 003°06'0 0.6
2018-Nov-01 09:59N 51°42' E 003°06'0 0.3
2018-Nov-01 09:28N 51°42' E 003°06'1 1.9
2018-Nov-01 08:59N 51°41' E 003°06'0 0.3
2018-Nov-01 08:29N 51°41' E 003°06'0 0.2
2018-Nov-01 08:02N 51°41' E 003°06'0 0.7
2018-Nov-01 07:59N 51°41' E 003°06'0 0.6
2018-Nov-01 07:29N 51°41' E 003°06'1 1.5
2018-Nov-01 07:01N 51°41' E 003°07'0 1.9
2018-Nov-01 06:58N 51°41' E 003°08'1 2.9
2018-Nov-01 06:31N 51°41' E 003°09'1 2.3
2018-Nov-01 06:01N 51°41' E 003°11'0 0.9
2018-Nov-01 06:00N 51°41' E 003°11'1 1.4
2018-Nov-01 05:29N 51°40' E 003°11'1 1.4
2018-Nov-01 05:02N 51°40' E 003°10'0 1.2
2018-Nov-01 05:00N 51°40' E 003°10'1 1.0
2018-Nov-01 04:30N 51°39' E 003°10'1 3.1
2018-Nov-01 04:03N 51°38' E 003°11'0 4.2
2018-Nov-01 04:00N 51°38' E 003°11'1 2.3
2018-Nov-01 03:29N 51°37' E 003°12'0 1.0
2018-Nov-01 03:03N 51°36' E 003°12'0 3.4
2018-Nov-01 03:00N 51°36' E 003°12'  
Track history (hours):
 
Tides and Currents Weather Stations Pressure Air Temp Water Temp Dewpoint Dewpoint Depression Visibility Wind Speed Wind Dir Waves Ship Positions

Admiralengracht

Last reported at 2018-Nov-11 02:32 UTC. Time now 2018-Nov-15 08:02 UTC.
Position N 51°26' E 003°35'.

Length 130 m; beam 19 m; draft 9 m.

Type: Ship. MMSI: 244170283.

Date/timePositionNaut miles runAvg speedWind from/ knotsBaromVisibWave heightAir tempDewpointWater temp
2018-Nov-11 02:32N 51°26' E 003°35'510.0
2018-Nov-11 02:02N 51°30' E 003°29'4 8.1
2018-Nov-11 01:32N 51°33' E 003°25'4 8.1
2018-Nov-11 01:02N 51°36' E 003°21'4 8.4
2018-Nov-11 00:32N 51°38' E 003°15'4 7.8
2018-Nov-11 00:02N 51°40' E 003°10'1 2.8
2018-Nov-10 23:32N 51°39' E 003°10'1 1.1
2018-Nov-10 23:00N 51°39' E 003°09'2 4.4
2018-Nov-10 22:31N 51°41' E 003°07'1 1.5
2018-Nov-10 22:01N 51°41' E 003°06'0 0.9
2018-Nov-10 21:32N 51°41' E 003°07'1 2.0
2018-Nov-10 21:01N 51°41' E 003°05'1 2.6
2018-Nov-10 20:32N 51°41' E 003°07'1 1.2
2018-Nov-10 20:02N 51°41' E 003°06'1 1.8
2018-Nov-10 19:32N 51°41' E 003°08'0 0.8
2018-Nov-10 19:02N 51°41' E 003°08'1 1.3
2018-Nov-10 18:32N 51°41' E 003°07'1 1.2
2018-Nov-10 18:02N 51°41' E 003°08'0 0.5
2018-Nov-10 17:32N 51°40' E 003°08'1 2.0
2018-Nov-10 17:00N 51°41' E 003°07'1 2.8
2018-Nov-10 16:32N 51°40' E 003°09'1 1.2
2018-Nov-10 16:01N 51°41' E 003°08'2 3.9
2018-Nov-10 15:32N 51°39' E 003°10'0 0.7
2018-Nov-10 15:00N 51°39' E 003°09'1 1.7
2018-Nov-10 14:32N 51°39' E 003°10'1 2.3
2018-Nov-10 14:01N 51°40' E 003°09'1 1.5
2018-Nov-10 13:31N 51°41' E 003°09'1 1.9
2018-Nov-10 12:59N 51°40' E 003°09'0 0.4
2018-Nov-10 12:32N 51°40' E 003°09'1 1.6
2018-Nov-10 12:02N 51°40' E 003°08'0 0.6
2018-Nov-10 11:31N 51°40' E 003°08'0 0.7
2018-Nov-10 11:01N 51°40' E 003°08'3 5.3
2018-Nov-10 10:32N 51°38' E 003°11'4 7.1
2018-Nov-10 10:00N 51°35' E 003°16'3 6.9
2018-Nov-10 09:31N 51°33' E 003°20'1 3.0
2018-Nov-10 09:02N 51°34' E 003°18'1 1.9
2018-Nov-10 08:32N 51°35' E 003°17'2 3.2
2018-Nov-10 08:02N 51°33' E 003°19'1 1.6
2018-Nov-10 07:33N 51°33' E 003°20'1 1.9
2018-Nov-10 07:02N 51°32' E 003°19'1 1.4
2018-Nov-10 06:31N 51°33' E 003°20'1 1.2
2018-Nov-10 06:02N 51°33' E 003°20'0 0.6
2018-Nov-10 05:32N 51°33' E 003°20'0 0.9
2018-Nov-10 05:02N 51°33' E 003°20'0 0.4
2018-Nov-10 04:32N 51°32' E 003°20'0 0.6
2018-Nov-10 04:01N 51°33' E 003°20'0 0.8
2018-Nov-10 03:32N 51°33' E 003°20'0 0.2
2018-Nov-10 03:02N 51°33' E 003°20'0 0.6
2018-Nov-10 02:32N 51°33' E 003°20'0 0.6
2018-Nov-10 02:02N 51°34' E 003°20'0 0.6
2018-Nov-10 01:33N 51°34' E 003°20'1 1.1
2018-Nov-10 01:02N 51°33' E 003°20'0 0.9
2018-Nov-10 00:32N 51°33' E 003°20'1 1.6
2018-Nov-09 23:59N 51°34' E 003°19'1 2.8
2018-Nov-09 23:32N 51°34' E 003°17'2 3.6
2018-Nov-09 23:01N 51°35' E 003°15'1 2.7
2018-Nov-09 22:32N 51°36' E 003°13'1 1.5
2018-Nov-09 21:59N 51°36' E 003°14'1 1.7
2018-Nov-09 21:31N 51°36' E 003°13'0 0.6
2018-Nov-09 21:02N 51°36' E 003°13'1 1.8
2018-Nov-09 20:32N 51°36' E 003°14'1 2.7
2018-Nov-09 20:02N 51°37' E 003°12'2 4.4
2018-Nov-09 19:32N 51°38' E 003°10'0 0.8
2018-Nov-09 19:01N 51°39' E 003°10'1 2.7
2018-Nov-09 18:31N 51°38' E 003°11'2 4.0
2018-Nov-09 18:01N 51°36' E 003°13'0 0.3
2018-Nov-09 17:30N 51°36' E 003°13'0 1.0
2018-Nov-09 17:03N 51°36' E 003°13'0 0.8
2018-Nov-09 16:31N 51°36' E 003°13'0 0.3
2018-Nov-09 16:02N 51°36' E 003°13'1 1.9
2018-Nov-09 15:31N 51°37' E 003°12'0 0.2
2018-Nov-09 15:02N 51°37' E 003°12'0 0.6
2018-Nov-09 14:30N 51°37' E 003°13'1 1.8
2018-Nov-09 14:00N 51°38' E 003°12'2 3.5
2018-Nov-09 13:32N 51°36' E 003°13'2 3.6
2018-Nov-09 13:02N 51°38' E 003°12'2 3.6
2018-Nov-09 12:33N 51°36' E 003°13'1 2.9
2018-Nov-09 12:02N 51°38' E 003°12'0 0.6
2018-Nov-09 11:32N 51°37' E 003°12'0 0.2
2018-Nov-09 11:02N 51°38' E 003°11'1 1.0
2018-Nov-09 10:32N 51°37' E 003°12'0 0.8
2018-Nov-09 10:02N 51°37' E 003°12'0 0.5
2018-Nov-09 09:20N 51°37' E 003°12'1 1.9
2018-Nov-09 09:02N 51°38' E 003°12'1 1.6
2018-Nov-09 08:32N 51°39' E 003°11'0 0.8
2018-Nov-09 08:01N 51°38' E 003°11'0 0.6
2018-Nov-09 07:32N 51°38' E 003°11'0 0.5
2018-Nov-09 07:02N 51°38' E 003°11'0 0.2
2018-Nov-09 06:31N 51°38' E 003°11'1 1.2
2018-Nov-09 06:02N 51°38' E 003°12'2 4.0
2018-Nov-09 05:30N 51°39' E 003°09'0 0.7
2018-Nov-09 05:01N 51°39' E 003°10'1 1.9
2018-Nov-09 04:32N 51°40' E 003°09'1 1.3
2018-Nov-09 04:01N 51°39' E 003°10'0 0.9
2018-Nov-09 03:29N 51°40' E 003°09'1 1.7
2018-Nov-09 03:01N 51°40' E 003°08'2 4.1
2018-Nov-09 02:32N 51°39' E 003°10'2 3.7
2018-Nov-09 02:02N 51°40' E 003°09'1 1.5
2018-Nov-09 01:32N 51°40' E 003°09'1 2.3
2018-Nov-09 01:02N 51°39' E 003°10'0 0.2
2018-Nov-09 00:31N 51°39' E 003°10'0 0.3
2018-Nov-09 00:02N 51°39' E 003°10'2 4.1
2018-Nov-08 23:32N 51°40' E 003°08'1 2.3
2018-Nov-08 23:02N 51°39' E 003°09'1 2.8
2018-Nov-08 22:32N 51°38' E 003°08'0 0.7
2018-Nov-08 21:58N 51°38' E 003°09'0 0.8
2018-Nov-08 21:30N 51°38' E 003°09'0 0.3
2018-Nov-08 21:01N 51°38' E 003°09'0 0.5
2018-Nov-08 20:32N 51°38' E 003°09'2 3.2
2018-Nov-08 19:57N 51°37' E 003°12'2 4.1
2018-Nov-08 19:31N 51°36' E 003°13'0 0.4
2018-Nov-08 19:02N 51°36' E 003°13'1 1.3
2018-Nov-08 18:32N 51°36' E 003°14'1 1.5
2018-Nov-08 18:00N 51°36' E 003°13'1 1.1
2018-Nov-08 17:30N 51°37' E 003°12'2 3.4
2018-Nov-08 17:02N 51°35' E 003°14'2 3.8
2018-Nov-08 16:31N 51°37' E 003°12'1 2.1
2018-Nov-08 16:02N 51°36' E 003°13'1 2.3
2018-Nov-08 15:31N 51°37' E 003°12'2 3.2
2018-Nov-08 15:01N 51°38' E 003°10'1 1.5
2018-Nov-08 14:32N 51°38' E 003°11'1 1.6
2018-Nov-08 14:01N 51°38' E 003°10'0 0.3
2018-Nov-08 13:30N 51°38' E 003°10'2 4.6
2018-Nov-08 13:02N 51°37' E 003°12'1 1.4
2018-Nov-08 12:31N 51°37' E 003°12'2 3.5
2018-Nov-08 12:02N 51°36' E 003°13'0 0.6
2018-Nov-08 11:32N 51°36' E 003°13'1 1.6
2018-Nov-08 11:01N 51°37' E 003°12'2 3.0
2018-Nov-08 10:30N 51°38' E 003°11'3 5.5
2018-Nov-08 10:02N 51°40' E 003°08'0 0.1
2018-Nov-08 09:32N 51°40' E 003°08'1 1.9
2018-Nov-08 09:02N 51°39' E 003°09'2 5.1
2018-Nov-08 08:32N 51°37' E 003°11'3 5.0
2018-Nov-08 07:59N 51°35' E 003°15'2 4.7
2018-Nov-08 07:32N 51°34' E 003°18'2 3.9
2018-Nov-08 06:59N 51°33' E 003°20'1 2.4
2018-Nov-08 06:32N 51°32' E 003°20'0 0.3
2018-Nov-08 06:02N 51°32' E 003°20'1 2.1
2018-Nov-08 05:32N 51°33' E 003°20'1 2.5
2018-Nov-08 04:58N 51°35' E 003°19'2 5.1
2018-Nov-08 04:29N 51°37' E 003°18'0 1.0
2018-Nov-08 04:02N 51°37' E 003°18'1 2.1
2018-Nov-08 03:30N 51°36' E 003°17'2 3.6
2018-Nov-08 03:02N 51°35' E 003°16'2 3.3
2018-Nov-08 02:32N 51°36' E 003°13'1 1.0
2018-Nov-08 02:03N 51°36' E 003°14'1 1.3
2018-Nov-08 01:31N 51°35' E 003°15'1 2.8
2018-Nov-08 01:02N 51°35' E 003°17'1 2.8
2018-Nov-08 00:43N 51°35' E 003°16'1 4.6
2018-Nov-08 00:32N 51°35' E 003°14'0 4.4
2018-Nov-08 00:28N 51°36' E 003°14'0 0.1
2018-Nov-08 00:02N 51°35' E 003°14'2 3.2
2018-Nov-07 23:31N 51°35' E 003°16'1 1.2
2018-Nov-07 22:59N 51°35' E 003°16'1 1.8
2018-Nov-07 22:32N 51°35' E 003°14'2 3.5
2018-Nov-07 21:59N 51°35' E 003°17'2 4.3
2018-Nov-07 21:30N 51°36' E 003°14'1 2.6
2018-Nov-07 21:03N 51°35' E 003°16'0 0.7
2018-Nov-07 20:33N 51°35' E 003°16'1 1.9
2018-Nov-07 20:00N 51°34' E 003°18'1 1.4
2018-Nov-07 19:32N 51°34' E 003°18'0 0.7
2018-Nov-07 19:01N 51°34' E 003°19'1 1.6
2018-Nov-07 18:32N 51°34' E 003°18'0 0.0
2018-Nov-07 18:03N 51°34' E 003°18'0 0.3
2018-Nov-07 17:32N 51°34' E 003°18'1 2.3
2018-Nov-07 17:02N 51°34' E 003°19'2 3.6
2018-Nov-07 16:32N 51°35' E 003°17'0 0.3
2018-Nov-07 16:03N 51°35' E 003°17'1 2.3
2018-Nov-07 15:33N 51°34' E 003°19'1 1.1
2018-Nov-07 15:01N 51°34' E 003°18'2 4.5
2018-Nov-07 14:32N 51°33' E 003°20'1 2.2
2018-Nov-07 14:02N 51°34' E 003°19'1 2.0
2018-Nov-07 13:32N 51°33' E 003°20'0 1.0
2018-Nov-07 13:02N 51°33' E 003°20'0 0.8
2018-Nov-07 12:32N 51°34' E 003°19'0 0.9
2018-Nov-07 12:02N 51°33' E 003°20'2 3.8
2018-Nov-07 11:32N 51°34' E 003°17'0 0.9
2018-Nov-07 11:02N 51°34' E 003°18'1 2.6
2018-Nov-07 10:32N 51°35' E 003°16'1 3.0
2018-Nov-07 10:02N 51°34' E 003°18'0 0.9
2018-Nov-07 09:31N 51°34' E 003°19'2 3.7
2018-Nov-07 09:02N 51°34' E 003°16'2 4.4
2018-Nov-07 08:32N 51°32' E 003°13'1 2.7
2018-Nov-07 08:00N 51°34' E 003°13'1 3.0
2018-Nov-07 07:32N 51°35' E 003°12'2 3.9
2018-Nov-07 07:02N 51°37' E 003°11'2 4.2
2018-Nov-07 06:31N 51°39' E 003°09'2 3.1
2018-Nov-07 06:01N 51°40' E 003°08'2 3.9
2018-Nov-07 05:32N 51°42' E 003°07'0 0.8
2018-Nov-07 05:02N 51°41' E 003°07'2 3.3
2018-Nov-07 04:32N 51°40' E 003°09'1 0.2
2018-Nov-06 23:17N 51°41' E 003°08'1 2.5
2018-Nov-06 23:03N 51°40' E 003°08'0 4.0
2018-Nov-06 22:59N 51°40' E 003°09'3 2.9
2018-Nov-06 21:58N 51°42' E 003°05'2 4.5
2018-Nov-06 21:30N 51°41' E 003°08'1 3.1
2018-Nov-06 21:03N 51°40' E 003°09'0 4.5
2018-Nov-06 21:00N 51°39' E 003°10'2 3.8
2018-Nov-06 20:30N 51°38' E 003°11'2 3.7
2018-Nov-06 20:03N 51°36' E 003°13'0 4.0
2018-Nov-06 20:00N 51°36' E 003°13'2 3.7
2018-Nov-06 19:29N 51°35' E 003°15'1 3.0
2018-Nov-06 19:03N 51°36' E 003°13'0 2.9
2018-Nov-06 19:00N 51°36' E 003°13'0 0.3
2018-Nov-06 18:30N 51°36' E 003°13'1 2.6
2018-Nov-06 18:03N 51°36' E 003°11'0 4.8
2018-Nov-06 18:00N 51°36' E 003°11'2 4.5
2018-Nov-06 17:31N 51°38' E 003°09'2 4.3
2018-Nov-06 17:03N 51°40' E 003°08'0 1.0
2018-Nov-06 17:00N 51°40' E 003°08'0 1.0
2018-Nov-06 16:30N 51°40' E 003°08'2 4.8
2018-Nov-06 16:03N 51°42' E 003°05'0 5.1
2018-Nov-06 16:00N 51°42' E 003°04'1 1.2
2018-Nov-06 15:29N 51°42' E 003°04'0 0.7
2018-Nov-06 15:02N 51°42' E 003°03'0 3.8
2018-Nov-06 14:59N 51°42' E 003°03'0 0.3
2018-Nov-06 14:29N 51°42' E 003°03'0 0.4
2018-Nov-06 14:03N 51°42' E 003°03'0 4.0
2018-Nov-06 14:00N 51°42' E 003°03'0 0.3
2018-Nov-06 13:28N 51°42' E 003°03'0 1.0
2018-Nov-06 13:02N 51°42' E 003°03'0 3.9
2018-Nov-06 12:59N 51°42' E 003°03'1 1.2
2018-Nov-06 12:26N 51°42' E 003°04'1 1.0
2018-Nov-06 11:43N 51°42' E 003°05'1 0.7
2018-Nov-06 10:57N 51°42' E 003°05'2 4.3
2018-Nov-06 10:29N 51°41' E 003°07'1 2.4
2018-Nov-06 10:03N 51°40' E 003°09'0 0.4
2018-Nov-06 10:00N 51°40' E 003°09'0 0.0
2018-Nov-06 09:28N 51°40' E 003°09'1 2.5
2018-Nov-06 09:03N 51°39' E 003°09'0 5.5
2018-Nov-06 09:00N 51°39' E 003°09'3 5.2
2018-Nov-06 08:30N 51°36' E 003°11'1 2.3
2018-Nov-06 08:00N 51°36' E 003°13'0 0.5
2018-Nov-06 07:30N 51°36' E 003°13'0 0.4
2018-Nov-06 07:01N 51°35' E 003°13'0 0.4
2018-Nov-06 06:58N 51°35' E 003°13'0 0.7
2018-Nov-06 06:30N 51°35' E 003°13'0 0.8
2018-Nov-06 06:02N 51°35' E 003°13'0 1.0
2018-Nov-06 05:59N 51°35' E 003°13'1 2.3
2018-Nov-06 05:30N 51°36' E 003°12'1 1.9
2018-Nov-06 05:03N 51°36' E 003°13'0 4.4
2018-Nov-06 05:00N 51°36' E 003°14'0 0.8
2018-Nov-06 04:29N 51°36' E 003°13'0 1.0
2018-Nov-06 04:03N 51°36' E 003°14'0 1.4
2018-Nov-06 04:00N 51°36' E 003°14'1 2.1
2018-Nov-06 03:30N 51°35' E 003°15'1 2.7
2018-Nov-06 02:58N 51°36' E 003°14'1 2.5
2018-Nov-06 02:30N 51°37' E 003°13'1 1.3
2018-Nov-06 02:03N 51°38' E 003°13'0 0.1
2018-Nov-06 01:59N 51°38' E 003°13'1 1.4
2018-Nov-06 01:30N 51°37' E 003°13'0 1.0
2018-Nov-06 01:02N 51°37' E 003°12'1 0.8
2018-Nov-05 23:30N 51°38' E 003°11'0 0.8
2018-Nov-05 23:03N 51°38' E 003°11'0 3.6
2018-Nov-05 23:00N 51°38' E 003°11'2 3.9
2018-Nov-05 22:30N 51°39' E 003°09'1 1.7
2018-Nov-05 22:03N 51°39' E 003°10'0 3.9
2018-Nov-05 21:59N 51°38' E 003°10'1 2.0
2018-Nov-05 21:30N 51°38' E 003°11'0 0.7
2018-Nov-05 21:03N 51°37' E 003°12'0 4.5
2018-Nov-05 21:00N 51°38' E 003°11'2 4.2
2018-Nov-05 20:26N 51°40' E 003°09'1 3.4
2018-Nov-05 20:01N 51°38' E 003°10'0 2.0
2018-Nov-05 19:59N 51°38' E 003°10'1 2.0
2018-Nov-05 19:30N 51°38' E 003°11'2 3.3
2018-Nov-05 19:02N 51°36' E 003°12'0 4.3
2018-Nov-05 19:00N 51°36' E 003°12'1 1.3
2018-Nov-05 18:27N 51°35' E 003°13'0 1.1
2018-Nov-05 18:01N 51°36' E 003°13'0 4.2
2018-Nov-05 18:00N 51°36' E 003°14'0 0.1
2018-Nov-05 17:30N 51°36' E 003°14'1 1.2
2018-Nov-05 17:03N 51°36' E 003°13'0 1.6
2018-Nov-05 16:59N 51°36' E 003°13'0 0.6
2018-Nov-05 16:29N 51°36' E 003°13'1 3.3
2018-Nov-05 16:03N 51°37' E 003°13'0 0.9
2018-Nov-05 16:00N 51°37' E 003°13'1 1.5
2018-Nov-05 15:30N 51°36' E 003°13'0 0.5
2018-Nov-05 15:03N 51°36' E 003°13'0 0.9
2018-Nov-05 14:59N 51°36' E 003°13'1 1.4
2018-Nov-05 14:29N 51°37' E 003°13'1 1.7
2018-Nov-05 14:03N 51°37' E 003°12'1 2.2
2018-Nov-05 13:30N 51°36' E 003°14'2 3.2
2018-Nov-05 13:01N 51°35' E 003°16'0 2.7
2018-Nov-05 12:57N 51°35' E 003°16'1 1.3
2018-Nov-05 12:28N 51°35' E 003°15'1 2.8
2018-Nov-05 12:03N 51°36' E 003°14'0 3.8
2018-Nov-05 11:59N 51°37' E 003°14'0 0.4
2018-Nov-05 11:29N 51°37' E 003°13'1 1.7
2018-Nov-05 11:00N 51°36' E 003°14'0 0.2
2018-Nov-05 10:30N 51°36' E 003°14'1 1.4
2018-Nov-05 10:03N 51°37' E 003°14'0 1.6
2018-Nov-05 10:00N 51°37' E 003°14'1 1.4
2018-Nov-05 09:30N 51°37' E 003°13'1 1.4
2018-Nov-05 09:04N 51°37' E 003°13'0 1.1
2018-Nov-05 08:59N 51°37' E 003°13'0 0.9
2018-Nov-05 08:30N 51°36' E 003°13'0 1.1
2018-Nov-05 08:04N 51°36' E 003°13'0 3.7
2018-Nov-05 08:00N 51°36' E 003°13'0 0.7
2018-Nov-05 07:30N 51°36' E 003°13'0 0.9
2018-Nov-05 07:03N 51°36' E 003°13'0 0.2
2018-Nov-05 07:00N 51°36' E 003°13'0 0.3
2018-Nov-05 06:30N 51°36' E 003°13'0 0.3
2018-Nov-05 06:04N 51°36' E 003°14'0 0.2
2018-Nov-05 06:00N 51°36' E 003°14'0 0.4
2018-Nov-05 05:30N 51°36' E 003°13'0 0.3
2018-Nov-05 05:03N 51°36' E 003°13'0 0.5
2018-Nov-05 05:00N 51°36' E 003°13'1 2.7
2018-Nov-05 04:30N 51°35' E 003°15'1 3.1
2018-Nov-05 04:03N 51°36' E 003°13'0 4.0
2018-Nov-05 04:00N 51°36' E 003°13'1 1.7
2018-Nov-05 03:28N 51°37' E 003°12'0 1.0
2018-Nov-05 03:02N 51°37' E 003°13'0 1.0
2018-Nov-05 02:59N 51°37' E 003°13'0 0.7
2018-Nov-05 02:30N 51°36' E 003°12'0 0.5
2018-Nov-05 02:03N 51°36' E 003°13'0 3.9
2018-Nov-05 02:00N 51°36' E 003°13'1 2.3
2018-Nov-05 01:30N 51°37' E 003°13'1 1.9
2018-Nov-05 01:02N 51°36' E 003°12'0 4.5
2018-Nov-05 01:00N 51°36' E 003°12'0 0.5
2018-Nov-05 00:29N 51°36' E 003°12'0 0.7
2018-Nov-05 00:01N 51°36' E 003°13'0 0.7
2018-Nov-04 23:57N 51°36' E 003°13'0 0.6
2018-Nov-04 23:30N 51°36' E 003°13'0 0.6
2018-Nov-04 23:03N 51°37' E 003°13'0 0.7
2018-Nov-04 23:00N 51°37' E 003°13'0 0.5
2018-Nov-04 22:30N 51°37' E 003°14'0 0.2
2018-Nov-04 22:03N 51°37' E 003°14'0 0.3
2018-Nov-04 22:00N 51°37' E 003°14'0 0.5
2018-Nov-04 21:29N 51°37' E 003°13'0 0.6
2018-Nov-04 21:00N 51°36' E 003°13'0 0.1
2018-Nov-04 20:27N 51°36' E 003°13'0 0.7
2018-Nov-04 20:03N 51°36' E 003°13'0 0.1
2018-Nov-04 20:00N 51°36' E 003°13'0 0.3
2018-Nov-04 19:30N 51°36' E 003°13'0 0.2
2018-Nov-04 19:02N 51°36' E 003°13'0 0.0
2018-Nov-04 19:00N 51°36' E 003°13'0 0.1
2018-Nov-04 18:30N 51°36' E 003°13'1 1.6
2018-Nov-04 18:03N 51°37' E 003°12'0 4.0
2018-Nov-04 18:00N 51°36' E 003°12'0 0.6
2018-Nov-04 17:27N 51°36' E 003°13'0 0.9
2018-Nov-04 16:58N 51°37' E 003°12'0 0.8
2018-Nov-04 16:29N 51°37' E 003°12'0 0.6
2018-Nov-04 15:59N 51°37' E 003°13'0 0.3
2018-Nov-04 15:29N 51°37' E 003°13'0 0.9
2018-Nov-04 15:03N 51°37' E 003°12'0 2.5
2018-Nov-04 15:00N 51°37' E 003°12'2 4.0
2018-Nov-04 14:30N 51°35' E 003°14'0 0.7
2018-Nov-04 14:03N 51°36' E 003°14'0 1.7
2018-Nov-04 13:59N 51°36' E 003°13'0 0.1
2018-Nov-04 13:29N 51°36' E 003°13'1 2.6
2018-Nov-04 13:03N 51°35' E 003°15'0 4.3
2018-Nov-04 13:00N 51°35' E 003°16'1 2.0
2018-Nov-04 12:30N 51°35' E 003°15'1 1.2
2018-Nov-04 12:03N 51°35' E 003°16'0 1.2
2018-Nov-04 11:57N 51°35' E 003°16'1 1.1
2018-Nov-04 11:25N 51°35' E 003°16'0 0.8
2018-Nov-04 11:03N 51°36' E 003°17'0 0.7
2018-Nov-04 10:59N 51°36' E 003°17'0 0.4
2018-Nov-04 10:30N 51°36' E 003°17'0 0.2
2018-Nov-04 10:01N 51°36' E 003°17'0 0.1
2018-Nov-04 09:59N 51°36' E 003°17'0 0.2
2018-Nov-04 09:30N 51°36' E 003°17'1 1.2
2018-Nov-04 09:02N 51°35' E 003°16'0 1.8
2018-Nov-04 09:00N 51°35' E 003°16'1 1.3
2018-Nov-04 08:30N 51°35' E 003°16'1 2.3
2018-Nov-04 08:01N 51°35' E 003°15'0 3.6
2018-Nov-04 07:57N 51°35' E 003°15'0 0.9
2018-Nov-04 07:30N 51°36' E 003°14'2 4.1
2018-Nov-04 07:03N 51°35' E 003°17'0 0.4
2018-Nov-04 06:59N 51°35' E 003°17'2 3.3
2018-Nov-04 06:14N 51°36' E 003°13'0 1.2
2018-Nov-04 06:03N 51°36' E 003°13'0 0.8
2018-Nov-04 06:00N 51°36' E 003°13'1 2.0
2018-Nov-04 05:30N 51°37' E 003°12'0 0.3
2018-Nov-04 04:57N 51°37' E 003°12'2 4.0
2018-Nov-04 04:30N 51°38' E 003°10'2 3.8
2018-Nov-04 03:56N 51°40' E 003°09'0 0.3
2018-Nov-04 03:27N 51°40' E 003°10'0 0.4
2018-Nov-04 03:03N 51°40' E 003°10'0 0.6
2018-Nov-04 02:58N 51°40' E 003°10'0 0.8
2018-Nov-04 02:30N 51°40' E 003°10'0 1.0
2018-Nov-04 02:03N 51°39' E 003°09'0 2.6
2018-Nov-04 02:00N 51°39' E 003°09'1 0.9
2018-Nov-04 01:27N 51°39' E 003°10'1 1.4
2018-Nov-04 01:03N 51°38' E 003°11'0 4.6
2018-Nov-04 00:59N 51°38' E 003°11'1 2.4
2018-Nov-04 00:29N 51°37' E 003°12'0 1.0
2018-Nov-04 00:03N 51°38' E 003°12'0 3.5
2018-Nov-04 00:00N 51°38' E 003°12'1 1.5
2018-Nov-03 23:30N 51°38' E 003°11'2 3.9
2018-Nov-03 23:02N 51°40' E 003°12'0 4.7
2018-Nov-03 23:00N 51°40' E 003°12'2 2.9
2018-Nov-03 22:25N 51°42' E 003°12'2 1.2
2018-Nov-03 20:30N 51°40' E 003°10'1 1.9
2018-Nov-03 20:02N 51°39' E 003°09'0 1.1
2018-Nov-03 20:00N 51°39' E 003°09'0 0.9
2018-Nov-03 19:29N 51°39' E 003°08'0 0.4
2018-Nov-03 19:03N 51°39' E 003°08'0 0.3
2018-Nov-03 18:58N 51°39' E 003°08'0 0.1
2018-Nov-03 18:28N 51°39' E 003°08'0 0.4
2018-Nov-03 18:03N 51°39' E 003°08'0 0.9
2018-Nov-03 18:00N 51°39' E 003°09'0 0.6
2018-Nov-03 17:30N 51°39' E 003°09'0 1.0
2018-Nov-03 17:03N 51°39' E 003°10'0 2.8
2018-Nov-03 16:59N 51°39' E 003°10'0 0.4
2018-Nov-03 16:29N 51°39' E 003°10'0 0.2
2018-Nov-03 16:01N 51°39' E 003°10'0 3.9
2018-Nov-03 15:59N 51°39' E 003°10'1 2.1
2018-Nov-03 15:26N 51°40' E 003°09'1 2.0
2018-Nov-03 15:02N 51°40' E 003°08'0 0.5
2018-Nov-03 14:57N 51°40' E 003°08'0 0.6
2018-Nov-03 14:29N 51°40' E 003°08'0 0.2
2018-Nov-03 14:03N 51°40' E 003°08'0 2.2
2018-Nov-03 13:59N 51°40' E 003°08'1 1.3
2018-Nov-03 13:30N 51°41' E 003°09'1 1.3
2018-Nov-03 13:03N 51°40' E 003°09'0 1.5
2018-Nov-03 12:58N 51°40' E 003°09'1 1.7
2018-Nov-03 12:30N 51°40' E 003°10'1 1.2
2018-Nov-03 12:03N 51°40' E 003°10'0 1.5
2018-Nov-03 12:00N 51°39' E 003°10'1 1.9
2018-Nov-03 11:30N 51°40' E 003°09'1 1.7
2018-Nov-03 11:03N 51°39' E 003°09'0 4.4
2018-Nov-03 11:00N 51°39' E 003°09'1 1.3
2018-Nov-03 10:29N 51°40' E 003°09'0 0.7
2018-Nov-03 10:03N 51°40' E 003°09'0 2.1
2018-Nov-03 09:55N 51°40' E 003°08'0 0.3
2018-Nov-03 09:30N 51°40' E 003°08'1 1.2
2018-Nov-03 09:03N 51°40' E 003°09'0 1.3
2018-Nov-03 08:57N 51°40' E 003°09'1 1.7
2018-Nov-03 08:29N 51°40' E 003°10'1 1.2
2018-Nov-03 08:03N 51°40' E 003°10'0 1.5
2018-Nov-03 07:59N 51°40' E 003°09'1 1.0
2018-Nov-03 07:28N 51°39' E 003°09'1 2.0
2018-Nov-03 07:02N 51°39' E 003°10'0 3.2
2018-Nov-03 06:59N 51°38' E 003°10'2 3.4
2018-Nov-03 06:30N 51°37' E 003°12'0 0.9
2018-Nov-03 06:03N 51°38' E 003°12'0 4.0
2018-Nov-03 06:00N 51°38' E 003°11'1 1.4
2018-Nov-03 05:30N 51°38' E 003°10'1 2.7
2018-Nov-03 05:03N 51°38' E 003°08'0 0.4
2018-Nov-03 05:00N 51°38' E 003°08'0 0.5
2018-Nov-03 04:27N 51°38' E 003°08'0 0.6
2018-Nov-03 04:03N 51°38' E 003°09'0 0.6
2018-Nov-03 03:59N 51°38' E 003°09'0 0.6
2018-Nov-03 03:24N 51°38' E 003°09'0 0.5
2018-Nov-03 03:02N 51°39' E 003°09'0 0.4
2018-Nov-03 02:56N 51°39' E 003°09'0 0.5
2018-Nov-03 02:27N 51°39' E 003°09'0 0.4
2018-Nov-03 02:02N 51°39' E 003°10'0 0.2
2018-Nov-03 01:53N 51°39' E 003°10'0 0.2
2018-Nov-03 01:23N 51°39' E 003°10'0 0.4
2018-Nov-03 01:02N 51°39' E 003°10'0 1.2
2018-Nov-03 00:59N 51°39' E 003°10'1 1.1
2018-Nov-03 00:30N 51°38' E 003°10'1 1.5
2018-Nov-03 00:02N 51°38' E 003°09'0 0.5
2018-Nov-02 23:59N 51°38' E 003°09'1 1.8
2018-Nov-02 23:30N 51°38' E 003°11'1 1.8
2018-Nov-02 22:59N 51°39' E 003°10'1 1.8
2018-Nov-02 22:29N 51°39' E 003°11'1 1.4
2018-Nov-02 22:03N 51°40' E 003°12'0 1.6
2018-Nov-02 21:56N 51°40' E 003°12'1 1.4
2018-Nov-02 21:30N 51°40' E 003°13'1 1.4
2018-Nov-02 21:00N 51°39' E 003°12'1 1.4
2018-Nov-02 20:28N 51°39' E 003°11'1 1.2
2018-Nov-02 20:00N 51°39' E 003°11'1 1.2
2018-Nov-02 19:30N 51°39' E 003°10'1 0.8
2018-Nov-02 17:37N 51°37' E 003°09'0 1.4
2018-Nov-02 17:29N 51°37' E 003°09'0 0.6
2018-Nov-02 17:03N 51°37' E 003°09'0 1.8
2018-Nov-02 17:00N 51°38' E 003°09'2 1.4
2018-Nov-02 15:51N 51°39' E 003°09'0 1.3
2018-Nov-02 15:30N 51°40' E 003°09'0 0.3
2018-Nov-02 15:03N 51°40' E 003°09'0 4.0
2018-Nov-02 15:00N 51°40' E 003°09'0 0.8
2018-Nov-02 14:30N 51°40' E 003°09'1 1.4
2018-Nov-02 14:00N 51°40' E 003°08'1 1.5
2018-Nov-02 13:30N 51°40' E 003°09'2 3.5
2018-Nov-02 13:02N 51°38' E 003°11'0 2.5
2018-Nov-02 12:58N 51°38' E 003°11'1 2.7
2018-Nov-02 12:31N 51°37' E 003°12'0 0.2
2018-Nov-02 12:03N 51°37' E 003°12'0 4.1
2018-Nov-02 11:59N 51°37' E 003°12'0 0.8
2018-Nov-02 11:30N 51°38' E 003°12'1 2.0
2018-Nov-02 11:02N 51°37' E 003°13'0 1.9
2018-Nov-02 10:55N 51°37' E 003°12'0 0.6
2018-Nov-02 10:30N 51°37' E 003°12'0 0.1
2018-Nov-02 10:03N 51°37' E 003°12'0 1.9
2018-Nov-02 10:00N 51°37' E 003°12'2 3.8
2018-Nov-02 09:30N 51°38' E 003°10'1 2.3
2018-Nov-02 09:02N 51°39' E 003°09'0 0.9
2018-Nov-02 08:59N 51°39' E 003°09'1 1.1
2018-Nov-02 08:29N 51°39' E 003°10'0 1.1
2018-Nov-02 08:03N 51°39' E 003°11'0 1.0
2018-Nov-02 08:00N 51°39' E 003°11'1 1.1
2018-Nov-02 07:28N 51°39' E 003°12'1 1.4
2018-Nov-02 07:00N 51°38' E 003°11'1 1.6
2018-Nov-02 06:28N 51°38' E 003°10'1 2.3
2018-Nov-02 06:03N 51°38' E 003°11'0 2.7
2018-Nov-02 06:00N 51°38' E 003°11'2 3.0
2018-Nov-02 05:30N 51°39' E 003°10'1 2.8
2018-Nov-02 05:03N 51°40' E 003°08'0 0.4
2018-Nov-02 04:57N 51°40' E 003°08'0 0.4
2018-Nov-02 04:30N 51°40' E 003°08'0 0.4
2018-Nov-02 04:01N 51°40' E 003°08'0 0.2
2018-Nov-02 03:59N 51°40' E 003°08'0 0.4
2018-Nov-02 03:30N 51°40' E 003°08'0 0.8
2018-Nov-02 02:54N 51°40' E 003°08'0 0.5
2018-Nov-02 02:12N 51°40' E 003°08'0 0.7
2018-Nov-02 01:59N 51°40' E 003°08'0 0.8
2018-Nov-02 01:27N 51°39' E 003°09'0 0.8
2018-Nov-02 01:02N 51°39' E 003°09'0 1.1
2018-Nov-02 00:53N 51°39' E 003°09'2 2.4
2018-Nov-02 00:14N 51°40' E 003°08'0 1.7
2018-Nov-02 00:02N 51°40' E 003°09'0 1.8
2018-Nov-01 23:54N 51°40' E 003°09'1 1.6
2018-Nov-01 23:29N 51°40' E 003°09'0 1.0
2018-Nov-01 23:02N 51°40' E 003°09'0 1.0
2018-Nov-01 22:59N 51°40' E 003°09'1 1.1
2018-Nov-01 22:28N 51°40' E 003°09'0 0.8
2018-Nov-01 22:02N 51°39' E 003°09'0 0.1
2018-Nov-01 21:59N 51°39' E 003°09'0 0.5
2018-Nov-01 21:25N 51°39' E 003°09'1 2.1
2018-Nov-01 21:03N 51°39' E 003°10'0 3.6
2018-Nov-01 21:00N 51°38' E 003°10'1 2.8
2018-Nov-01 20:30N 51°40' E 003°09'1 1.2
2018-Nov-01 20:02N 51°40' E 003°09'0 0.3
2018-Nov-01 19:58N 51°40' E 003°09'0 0.1
2018-Nov-01 19:30N 51°40' E 003°09'1 1.2
2018-Nov-01 19:01N 51°40' E 003°09'0 1.4
2018-Nov-01 18:58N 51°40' E 003°09'0 1.1
2018-Nov-01 18:30N 51°40' E 003°09'1 2.2
2018-Nov-01 18:02N 51°39' E 003°10'0 3.4
2018-Nov-01 17:56N 51°39' E 003°09'1 2.0
2018-Nov-01 17:29N 51°40' E 003°09'1 1.7
2018-Nov-01 17:02N 51°40' E 003°08'0 4.4
2018-Nov-01 16:57N 51°41' E 003°07'2 4.3
2018-Nov-01 16:29N 51°42' E 003°05'0 0.0
2018-Nov-01 16:03N 51°42' E 003°05'0 4.4
2018-Nov-01 16:00N 51°42' E 003°05'2 4.2
2018-Nov-01 15:30N 51°40' E 003°08'2 3.4
2018-Nov-01 15:03N 51°41' E 003°06'0 4.4
2018-Nov-01 15:00N 51°41' E 003°05'0 0.4
2018-Nov-01 14:03N 51°41' E 003°06'0 3.9
2018-Nov-01 14:00N 51°41' E 003°06'1 2.5
2018-Nov-01 13:29N 51°40' E 003°08'1 1.8
2018-Nov-01 13:03N 51°40' E 003°09'0 1.1
2018-Nov-01 13:00N 51°40' E 003°09'1 2.2
2018-Nov-01 12:30N 51°41' E 003°08'2 3.6
2018-Nov-01 12:03N 51°41' E 003°05'0 2.3
2018-Nov-01 12:00N 51°41' E 003°05'0 0.6
2018-Nov-01 11:30N 51°41' E 003°05'0 1.0
2018-Nov-01 11:02N 51°42' E 003°05'0 0.3
2018-Nov-01 10:58N 51°42' E 003°05'0 0.7
2018-Nov-01 10:30N 51°42' E 003°06'0 0.4
2018-Nov-01 10:03N 51°42' E 003°06'0 0.6
2018-Nov-01 09:59N 51°42' E 003°06'0 0.3
2018-Nov-01 09:28N 51°42' E 003°06'1 1.9
2018-Nov-01 08:59N 51°41' E 003°06'0 0.3
2018-Nov-01 08:29N 51°41' E 003°06'0 0.2
2018-Nov-01 08:02N 51°41' E 003°06'0 0.7
2018-Nov-01 07:59N 51°41' E 003°06'0 0.6
2018-Nov-01 07:29N 51°41' E 003°06'1 1.5
2018-Nov-01 07:01N 51°41' E 003°07'0 1.9
2018-Nov-01 06:58N 51°41' E 003°08'1 2.9
2018-Nov-01 06:31N 51°41' E 003°09'1 2.3
2018-Nov-01 06:01N 51°41' E 003°11'0 0.9
2018-Nov-01 06:00N 51°41' E 003°11'1 1.4
2018-Nov-01 05:29N 51°40' E 003°11'1 1.4
2018-Nov-01 05:02N 51°40' E 003°10'0 1.2
2018-Nov-01 05:00N 51°40' E 003°10'1 1.0
2018-Nov-01 04:30N 51°39' E 003°10'1 3.1
2018-Nov-01 04:03N 51°38' E 003°11'0 4.2
2018-Nov-01 04:00N 51°38' E 003°11'1 2.3
2018-Nov-01 03:29N 51°37' E 003°12'0 1.0
2018-Nov-01 03:03N 51°36' E 003°12'0 3.4
2018-Nov-01 03:00N 51°36' E 003°12'  

Dump ship's entire track history